New Almaden, California
Current Conditions -  °F | °C
As of 8:50 AM on Monday 22 Dec 2014 (Local Time) from KRHV Reporting Station
Broken Clouds Broken Clouds  
Wind Chill: 61°   Ceiling: 2500
Heat Index: 61°   Visibility: 10mi
Dew Point: 57°   Wind: 9mph
Humidity: 88%   Direction: 300°WNW
Pressure: 30.28"   Gusts: NA
Location:  37.18°N, 121.82°W
Report Text: KRHV 221650Z 30008KT 10SM SCT015 BKN025 16/14 A3028
Loading
Personal Weather Stations






























Interactive Weather Map New forecast layout! Learn more

10-Day Weather Forecast

Advertisements
Track Severe Weather on mobile